sensor_id;sensor_type;location;lat;lon;timestamp;temperature;humidity
47861;HTU21D;33620;52.340;5.984;2023-02-28T00:00:49;4.10;78.96
47861;HTU21D;33620;52.340;5.984;2023-02-28T00:03:20;4.10;78.94
47861;HTU21D;33620;52.340;5.984;2023-02-28T00:05:45;4.13;78.95
47861;HTU21D;33620;52.340;5.984;2023-02-28T00:08:11;4.13;79.03
47861;HTU21D;33620;52.340;5.984;2023-02-28T00:10:36;4.14;79.03
47861;HTU21D;33620;52.340;5.984;2023-02-28T00:13:03;4.16;79.11
47861;HTU21D;33620;52.340;5.984;2023-02-28T00:15:32;4.16;79.12
47861;HTU21D;33620;52.340;5.984;2023-02-28T00:17:58;4.17;79.16
47861;HTU21D;33620;52.340;5.984;2023-02-28T00:20:29;4.18;78.90
47861;HTU21D;33620;52.340;5.984;2023-02-28T00:22:58;4.19;78.90
47861;HTU21D;33620;52.340;5.984;2023-02-28T00:25:27;4.18;78.78
47861;HTU21D;33620;52.340;5.984;2023-02-28T00:27:52;4.19;78.91
47861;HTU21D;33620;52.340;5.984;2023-02-28T00:30:19;4.19;78.83
47861;HTU21D;33620;52.340;5.984;2023-02-28T00:32:50;4.22;78.84
47861;HTU21D;33620;52.340;5.984;2023-02-28T00:35:18;4.22;78.87
47861;HTU21D;33620;52.340;5.984;2023-02-28T00:37:48;4.23;78.74
47861;HTU21D;33620;52.340;5.984;2023-02-28T00:40:15;4.26;78.68
47861;HTU21D;33620;52.340;5.984;2023-02-28T00:42:44;4.24;78.66
47861;HTU21D;33620;52.340;5.984;2023-02-28T00:45:12;4.27;78.79
47861;HTU21D;33620;52.340;5.984;2023-02-28T00:47:40;4.24;78.75
47861;HTU21D;33620;52.340;5.984;2023-02-28T00:50:06;4.26;78.77
47861;HTU21D;33620;52.340;5.984;2023-02-28T00:52:34;4.24;78.79
47861;HTU21D;33620;52.340;5.984;2023-02-28T00:55:02;4.24;78.73
47861;HTU21D;33620;52.340;5.984;2023-02-28T00:57:30;4.26;78.82
47861;HTU21D;33620;52.340;5.984;2023-02-28T01:00:03;4.22;78.92
47861;HTU21D;33620;52.340;5.984;2023-02-28T01:02:31;4.28;78.96
47861;HTU21D;33620;52.340;5.984;2023-02-28T01:04:57;4.29;78.79
47861;HTU21D;33620;52.340;5.984;2023-02-28T01:07:25;4.30;78.79
47861;HTU21D;33620;52.340;5.984;2023-02-28T01:09:53;4.32;78.75
47861;HTU21D;33620;52.340;5.984;2023-02-28T01:12:24;4.30;78.61
47861;HTU21D;33620;52.340;5.984;2023-02-28T01:14:49;4.29;78.73
47861;HTU21D;33620;52.340;5.984;2023-02-28T01:17:15;4.28;78.83
47861;HTU21D;33620;52.340;5.984;2023-02-28T01:19:42;4.27;78.83
47861;HTU21D;33620;52.340;5.984;2023-02-28T01:22:08;4.27;78.95
47861;HTU21D;33620;52.340;5.984;2023-02-28T01:24:38;4.26;79.01
47861;HTU21D;33620;52.340;5.984;2023-02-28T01:27:04;4.24;79.03
47861;HTU21D;33620;52.340;5.984;2023-02-28T01:29:30;4.26;79.16
47861;HTU21D;33620;52.340;5.984;2023-02-28T01:31:55;4.27;79.35
47861;HTU21D;33620;52.340;5.984;2023-02-28T01:34:22;4.28;79.24
47861;HTU21D;33620;52.340;5.984;2023-02-28T01:36:47;4.31;78.97
47861;HTU21D;33620;52.340;5.984;2023-02-28T01:39:13;4.30;79.05
47861;HTU21D;33620;52.340;5.984;2023-02-28T01:41:39;4.30;79.17
47861;HTU21D;33620;52.340;5.984;2023-02-28T01:44:05;4.31;79.17
47861;HTU21D;33620;52.340;5.984;2023-02-28T01:46:32;4.32;79.11
47861;HTU21D;33620;52.340;5.984;2023-02-28T01:49:02;4.33;79.04
47861;HTU21D;33620;52.340;5.984;2023-02-28T01:51:41;4.33;79.05
47861;HTU21D;33620;52.340;5.984;2023-02-28T01:54:13;4.34;79.07
47861;HTU21D;33620;52.340;5.984;2023-02-28T01:56:41;4.34;79.12
47861;HTU21D;33620;52.340;5.984;2023-02-28T01:59:12;4.33;79.14
47861;HTU21D;33620;52.340;5.984;2023-02-28T02:01:41;4.34;79.12
47861;HTU21D;33620;52.340;5.984;2023-02-28T02:04:07;4.35;79.07
47861;HTU21D;33620;52.340;5.984;2023-02-28T02:06:45;4.36;79.05
47861;HTU21D;33620;52.340;5.984;2023-02-28T02:09:11;4.38;79.03
47861;HTU21D;33620;52.340;5.984;2023-02-28T02:11:42;4.38;78.98
47861;HTU21D;33620;52.340;5.984;2023-02-28T02:14:21;4.38;78.79
47861;HTU21D;33620;52.340;5.984;2023-02-28T02:19:31;4.38;78.86
47861;HTU21D;33620;52.340;5.984;2023-02-28T02:33:23;4.35;79.48
47861;HTU21D;33620;52.340;5.984;2023-02-28T02:36:00;4.36;79.66
47861;HTU21D;33620;52.340;5.984;2023-02-28T02:38:34;4.34;79.63
47861;HTU21D;33620;52.340;5.984;2023-02-28T02:43:40;4.34;79.78
47861;HTU21D;33620;52.340;5.984;2023-02-28T02:46:12;4.32;79.85
47861;HTU21D;33620;52.340;5.984;2023-02-28T02:48:40;4.31;79.88
47861;HTU21D;33620;52.340;5.984;2023-02-28T02:51:07;4.32;79.94
47861;HTU21D;33620;52.340;5.984;2023-02-28T02:56:15;4.32;80.07
47861;HTU21D;33620;52.340;5.984;2023-02-28T02:58:44;4.33;80.14
47861;HTU21D;33620;52.340;5.984;2023-02-28T03:01:13;4.32;80.17
47861;HTU21D;33620;52.340;5.984;2023-02-28T03:03:40;4.33;80.43
47861;HTU21D;33620;52.340;5.984;2023-02-28T03:06:08;4.33;80.67
47861;HTU21D;33620;52.340;5.984;2023-02-28T03:08:36;4.34;80.69
47861;HTU21D;33620;52.340;5.984;2023-02-28T03:11:03;4.31;80.69
47861;HTU21D;33620;52.340;5.984;2023-02-28T03:21:40;4.19;81.59
47861;HTU21D;33620;52.340;5.984;2023-02-28T03:24:13;4.18;81.83
47861;HTU21D;33620;52.340;5.984;2023-02-28T03:26:42;4.19;81.77
47861;HTU21D;33620;52.340;5.984;2023-02-28T03:29:13;4.17;81.82
47861;HTU21D;33620;52.340;5.984;2023-02-28T03:31:48;4.17;81.98
47861;HTU21D;33620;52.340;5.984;2023-02-28T03:34:17;4.17;81.99
47861;HTU21D;33620;52.340;5.984;2023-02-28T03:36:45;4.17;82.05
47861;HTU21D;33620;52.340;5.984;2023-02-28T03:39:26;4.17;82.09
47861;HTU21D;33620;52.340;5.984;2023-02-28T03:41:53;4.17;81.84
47861;HTU21D;33620;52.340;5.984;2023-02-28T03:44:32;4.16;81.44
47861;HTU21D;33620;52.340;5.984;2023-02-28T03:47:32;4.17;81.18
47861;HTU21D;33620;52.340;5.984;2023-02-28T03:50:01;4.18;80.88
47861;HTU21D;33620;52.340;5.984;2023-02-28T03:52:29;4.17;80.85
47861;HTU21D;33620;52.340;5.984;2023-02-28T03:54:57;4.16;80.78
47861;HTU21D;33620;52.340;5.984;2023-02-28T04:00:14;4.16;79.88
47861;HTU21D;33620;52.340;5.984;2023-02-28T04:02:42;4.14;79.51
47861;HTU21D;33620;52.340;5.984;2023-02-28T04:05:07;4.12;79.75
47861;HTU21D;33620;52.340;5.984;2023-02-28T04:07:33;4.06;79.49
47861;HTU21D;33620;52.340;5.984;2023-02-28T04:09:58;4.06;79.20
47861;HTU21D;33620;52.340;5.984;2023-02-28T04:12:24;4.05;79.00
47861;HTU21D;33620;52.340;5.984;2023-02-28T04:14:49;4.04;79.02
47861;HTU21D;33620;52.340;5.984;2023-02-28T04:17:15;4.01;78.85
47861;HTU21D;33620;52.340;5.984;2023-02-28T04:19:40;3.97;78.43
47861;HTU21D;33620;52.340;5.984;2023-02-28T04:22:07;3.92;77.53
47861;HTU21D;33620;52.340;5.984;2023-02-28T04:24:32;3.88;76.73
47861;HTU21D;33620;52.340;5.984;2023-02-28T04:26:58;3.87;77.05
47861;HTU21D;33620;52.340;5.984;2023-02-28T04:29:25;3.89;77.18
47861;HTU21D;33620;52.340;5.984;2023-02-28T04:31:50;3.87;77.47
47861;HTU21D;33620;52.340;5.984;2023-02-28T04:34:16;3.87;77.53
47861;HTU21D;33620;52.340;5.984;2023-02-28T04:36:41;3.88;77.37
47861;HTU21D;33620;52.340;5.984;2023-02-28T04:39:07;3.87;77.47
47861;HTU21D;33620;52.340;5.984;2023-02-28T04:41:32;3.86;77.70
47861;HTU21D;33620;52.340;5.984;2023-02-28T04:43:58;3.84;77.48
47861;HTU21D;33620;52.340;5.984;2023-02-28T04:46:23;3.83;77.35
47861;HTU21D;33620;52.340;5.984;2023-02-28T04:48:49;3.78;76.67
47861;HTU21D;33620;52.340;5.984;2023-02-28T04:51:15;3.76;75.89
47861;HTU21D;33620;52.340;5.984;2023-02-28T04:53:41;3.74;75.30
47861;HTU21D;33620;52.340;5.984;2023-02-28T04:56:07;3.74;74.92
47861;HTU21D;33620;52.340;5.984;2023-02-28T04:58:33;3.75;74.82
47861;HTU21D;33620;52.340;5.984;2023-02-28T05:01:02;3.75;74.98
47861;HTU21D;33620;52.340;5.984;2023-02-28T05:03:28;3.76;74.77
47861;HTU21D;33620;52.340;5.984;2023-02-28T05:05:53;3.74;74.27
47861;HTU21D;33620;52.340;5.984;2023-02-28T05:08:18;3.72;73.96
47861;HTU21D;33620;52.340;5.984;2023-02-28T05:10:44;3.68;73.83
47861;HTU21D;33620;52.340;5.984;2023-02-28T05:13:11;3.65;73.57
47861;HTU21D;33620;52.340;5.984;2023-02-28T05:15:37;3.64;73.80
47861;HTU21D;33620;52.340;5.984;2023-02-28T05:18:02;3.64;73.65
47861;HTU21D;33620;52.340;5.984;2023-02-28T05:20:27;3.65;73.62
47861;HTU21D;33620;52.340;5.984;2023-02-28T05:22:52;3.65;73.44
47861;HTU21D;33620;52.340;5.984;2023-02-28T05:25:19;3.65;73.49
47861;HTU21D;33620;52.340;5.984;2023-02-28T05:27:44;3.62;73.31
47861;HTU21D;33620;52.340;5.984;2023-02-28T05:30:10;3.55;72.55
47861;HTU21D;33620;52.340;5.984;2023-02-28T05:32:38;3.52;73.07
47861;HTU21D;33620;52.340;5.984;2023-02-28T05:35:07;3.49;73.60
47861;HTU21D;33620;52.340;5.984;2023-02-28T05:37:33;3.45;73.54
47861;HTU21D;33620;52.340;5.984;2023-02-28T05:39:58;3.42;73.71
47861;HTU21D;33620;52.340;5.984;2023-02-28T05:42:24;3.41;73.87
47861;HTU21D;33620;52.340;5.984;2023-02-28T05:44:49;3.42;73.96
47861;HTU21D;33620;52.340;5.984;2023-02-28T05:47:15;3.44;73.81
47861;HTU21D;33620;52.340;5.984;2023-02-28T05:49:42;3.44;73.92
47861;HTU21D;33620;52.340;5.984;2023-02-28T05:52:07;3.42;73.75
47861;HTU21D;33620;52.340;5.984;2023-02-28T05:54:32;3.39;73.75
47861;HTU21D;33620;52.340;5.984;2023-02-28T05:56:57;3.36;73.70
47861;HTU21D;33620;52.340;5.984;2023-02-28T05:59:23;3.30;73.43
47861;HTU21D;33620;52.340;5.984;2023-02-28T06:01:48;3.25;73.89
47861;HTU21D;33620;52.340;5.984;2023-02-28T06:04:14;3.21;74.07
47861;HTU21D;33620;52.340;5.984;2023-02-28T06:06:43;3.24;74.58
47861;HTU21D;33620;52.340;5.984;2023-02-28T06:09:08;3.23;74.38
47861;HTU21D;33620;52.340;5.984;2023-02-28T06:11:34;3.21;74.71
47861;HTU21D;33620;52.340;5.984;2023-02-28T06:14:00;3.24;74.89
47861;HTU21D;33620;52.340;5.984;2023-02-28T06:16:29;3.25;74.92
47861;HTU21D;33620;52.340;5.984;2023-02-28T06:18:56;3.26;74.65
47861;HTU21D;33620;52.340;5.984;2023-02-28T06:21:22;3.27;75.04
47861;HTU21D;33620;52.340;5.984;2023-02-28T06:23:47;3.25;74.70
47861;HTU21D;33620;52.340;5.984;2023-02-28T06:26:12;3.24;74.73
47861;HTU21D;33620;52.340;5.984;2023-02-28T06:28:38;3.24;75.04
47861;HTU21D;33620;52.340;5.984;2023-02-28T06:31:11;3.23;75.06
47861;HTU21D;33620;52.340;5.984;2023-02-28T06:33:37;3.15;74.83
47861;HTU21D;33620;52.340;5.984;2023-02-28T06:36:03;3.12;75.47
47861;HTU21D;33620;52.340;5.984;2023-02-28T06:38:29;3.14;75.53
47861;HTU21D;33620;52.340;5.984;2023-02-28T06:40:55;3.17;75.60
47861;HTU21D;33620;52.340;5.984;2023-02-28T06:43:20;3.20;75.67
47861;HTU21D;33620;52.340;5.984;2023-02-28T06:45:46;3.24;75.76
47861;HTU21D;33620;52.340;5.984;2023-02-28T06:48:11;3.28;75.90
47861;HTU21D;33620;52.340;5.984;2023-02-28T06:50:36;3.32;75.80
47861;HTU21D;33620;52.340;5.984;2023-02-28T06:53:02;3.32;75.58
47861;HTU21D;33620;52.340;5.984;2023-02-28T06:55:27;3.35;75.80
47861;HTU21D;33620;52.340;5.984;2023-02-28T06:57:53;3.36;75.44
47861;HTU21D;33620;52.340;5.984;2023-02-28T07:00:20;3.34;75.56
47861;HTU21D;33620;52.340;5.984;2023-02-28T07:02:45;3.36;75.80
47861;HTU21D;33620;52.340;5.984;2023-02-28T07:05:10;3.40;75.85
47861;HTU21D;33620;52.340;5.984;2023-02-28T07:07:36;3.43;75.89
47861;HTU21D;33620;52.340;5.984;2023-02-28T07:10:03;3.47;76.04
47861;HTU21D;33620;52.340;5.984;2023-02-28T07:12:29;3.49;75.98
47861;HTU21D;33620;52.340;5.984;2023-02-28T07:14:54;3.53;76.19
47861;HTU21D;33620;52.340;5.984;2023-02-28T07:17:20;3.54;76.24
47861;HTU21D;33620;52.340;5.984;2023-02-28T07:19:46;3.56;76.24
47861;HTU21D;33620;52.340;5.984;2023-02-28T07:22:11;3.59;76.22
47861;HTU21D;33620;52.340;5.984;2023-02-28T07:24:36;3.67;75.88
47861;HTU21D;33620;52.340;5.984;2023-02-28T07:27:03;3.68;75.56
47861;HTU21D;33620;52.340;5.984;2023-02-28T07:29:28;3.72;75.57
47861;HTU21D;33620;52.340;5.984;2023-02-28T07:31:54;3.73;75.83
47861;HTU21D;33620;52.340;5.984;2023-02-28T07:34:19;3.73;75.76
47861;HTU21D;33620;52.340;5.984;2023-02-28T07:36:45;3.71;75.83
47861;HTU21D;33620;52.340;5.984;2023-02-28T07:39:10;3.70;75.96
47861;HTU21D;33620;52.340;5.984;2023-02-28T07:41:35;3.65;75.43
47861;HTU21D;33620;52.340;5.984;2023-02-28T07:44:04;3.64;75.50
47861;HTU21D;33620;52.340;5.984;2023-02-28T07:46:30;3.67;75.70
47861;HTU21D;33620;52.340;5.984;2023-02-28T07:49:00;3.68;75.91
47861;HTU21D;33620;52.340;5.984;2023-02-28T07:51:26;3.70;76.04
47861;HTU21D;33620;52.340;5.984;2023-02-28T07:53:51;3.74;76.20
47861;HTU21D;33620;52.340;5.984;2023-02-28T07:56:16;3.79;76.24
47861;HTU21D;33620;52.340;5.984;2023-02-28T07:58:42;3.84;75.85
47861;HTU21D;33620;52.340;5.984;2023-02-28T08:01:08;3.86;75.94
47861;HTU21D;33620;52.340;5.984;2023-02-28T08:03:33;3.90;75.86
47861;HTU21D;33620;52.340;5.984;2023-02-28T08:05:58;3.91;75.88
47861;HTU21D;33620;52.340;5.984;2023-02-28T08:08:24;3.94;75.74
47861;HTU21D;33620;52.340;5.984;2023-02-28T08:10:49;3.98;75.53
47861;HTU21D;33620;52.340;5.984;2023-02-28T08:13:14;3.99;75.03
47861;HTU21D;33620;52.340;5.984;2023-02-28T08:15:41;4.05;75.32
47861;HTU21D;33620;52.340;5.984;2023-02-28T08:18:06;4.12;75.48
47861;HTU21D;33620;52.340;5.984;2023-02-28T08:20:32;4.15;74.52
47861;HTU21D;33620;52.340;5.984;2023-02-28T08:22:57;4.17;74.06
47861;HTU21D;33620;52.340;5.984;2023-02-28T08:25:22;4.22;73.80
47861;HTU21D;33620;52.340;5.984;2023-02-28T08:27:50;4.29;73.61
47861;HTU21D;33620;52.340;5.984;2023-02-28T08:30:15;4.33;72.70
47861;HTU21D;33620;52.340;5.984;2023-02-28T08:32:40;4.41;72.47
47861;HTU21D;33620;52.340;5.984;2023-02-28T08:35:06;4.47;71.68
47861;HTU21D;33620;52.340;5.984;2023-02-28T08:37:32;4.46;69.55
47861;HTU21D;33620;52.340;5.984;2023-02-28T08:39:58;4.47;69.55
47861;HTU21D;33620;52.340;5.984;2023-02-28T08:42:24;4.50;69.30
47861;HTU21D;33620;52.340;5.984;2023-02-28T08:44:49;4.53;68.77
47861;HTU21D;33620;52.340;5.984;2023-02-28T08:47:14;4.57;68.87
47861;HTU21D;33620;52.340;5.984;2023-02-28T08:49:40;4.53;67.15
47861;HTU21D;33620;52.340;5.984;2023-02-28T08:52:05;4.53;67.10
47861;HTU21D;33620;52.340;5.984;2023-02-28T08:54:31;4.50;66.11
47861;HTU21D;33620;52.340;5.984;2023-02-28T08:56:57;4.49;66.51
47861;HTU21D;33620;52.340;5.984;2023-02-28T08:59:22;4.49;66.40
47861;HTU21D;33620;52.340;5.984;2023-02-28T09:01:48;4.49;66.67
47861;HTU21D;33620;52.340;5.984;2023-02-28T09:04:13;4.52;66.79
47861;HTU21D;33620;52.340;5.984;2023-02-28T09:06:38;4.50;64.53
47861;HTU21D;33620;52.340;5.984;2023-02-28T09:09:04;4.44;58.43
47861;HTU21D;33620;52.340;5.984;2023-02-28T09:11:31;4.45;56.13
47861;HTU21D;33620;52.340;5.984;2023-02-28T09:13:57;4.44;54.82
47861;HTU21D;33620;52.340;5.984;2023-02-28T09:16:22;4.45;55.03
47861;HTU21D;33620;52.340;5.984;2023-02-28T09:18:47;4.49;54.26
47861;HTU21D;33620;52.340;5.984;2023-02-28T09:21:14;4.52;54.93
47861;HTU21D;33620;52.340;5.984;2023-02-28T09:23:40;4.54;53.70
47861;HTU21D;33620;52.340;5.984;2023-02-28T09:26:06;4.53;53.24
47861;HTU21D;33620;52.340;5.984;2023-02-28T09:28:32;4.52;53.73
47861;HTU21D;33620;52.340;5.984;2023-02-28T09:30:57;4.57;55.29
47861;HTU21D;33620;52.340;5.984;2023-02-28T09:33:23;4.56;53.98
47861;HTU21D;33620;52.340;5.984;2023-02-28T09:35:49;4.53;53.39
47861;HTU21D;33620;52.340;5.984;2023-02-28T09:38:15;4.56;52.02
47861;HTU21D;33620;52.340;5.984;2023-02-28T09:41:02;4.56;52.20
47861;HTU21D;33620;52.340;5.984;2023-02-28T09:43:27;4.62;51.94
47861;HTU21D;33620;52.340;5.984;2023-02-28T09:48:51;4.84;51.15
47861;HTU21D;33620;52.340;5.984;2023-02-28T09:54:00;4.96;50.20
47861;HTU21D;33620;52.340;5.984;2023-02-28T09:56:28;4.97;49.02
47861;HTU21D;33620;52.340;5.984;2023-02-28T09:58:57;4.94;49.09
47861;HTU21D;33620;52.340;5.984;2023-02-28T10:06:20;4.98;48.52
47861;HTU21D;33620;52.340;5.984;2023-02-28T10:08:51;4.98;48.91
47861;HTU21D;33620;52.340;5.984;2023-02-28T10:11:17;5.01;48.92
47861;HTU21D;33620;52.340;5.984;2023-02-28T10:16:12;5.08;48.53
47861;HTU21D;33620;52.340;5.984;2023-02-28T10:18:40;5.12;48.98
47861;HTU21D;33620;52.340;5.984;2023-02-28T10:21:08;5.18;47.89
47861;HTU21D;33620;52.340;5.984;2023-02-28T10:23:38;5.16;46.29
47861;HTU21D;33620;52.340;5.984;2023-02-28T10:26:11;5.12;47.02
47861;HTU21D;33620;52.340;5.984;2023-02-28T10:28:38;5.13;47.08
47861;HTU21D;33620;52.340;5.984;2023-02-28T10:31:03;5.17;47.86
47861;HTU21D;33620;52.340;5.984;2023-02-28T10:33:30;5.19;47.22
47861;HTU21D;33620;52.340;5.984;2023-02-28T10:35:56;5.21;46.36
47861;HTU21D;33620;52.340;5.984;2023-02-28T10:38:25;5.21;46.28
47861;HTU21D;33620;52.340;5.984;2023-02-28T10:40:51;5.23;46.35
47861;HTU21D;33620;52.340;5.984;2023-02-28T10:43:18;5.25;48.05
47861;HTU21D;33620;52.340;5.984;2023-02-28T10:46:29;5.30;47.20
47861;HTU21D;33620;52.340;5.984;2023-02-28T10:48:32;5.31;46.02
47861;HTU21D;33620;52.340;5.984;2023-02-28T10:50:58;5.36;46.09
47861;HTU21D;33620;52.340;5.984;2023-02-28T11:01:16;5.51;46.56
47861;HTU21D;33620;52.340;5.984;2023-02-28T11:03:42;5.56;46.73
47861;HTU21D;33620;52.340;5.984;2023-02-28T11:06:08;5.61;46.45
47861;HTU21D;33620;52.340;5.984;2023-02-28T11:08:48;5.63;45.41
47861;HTU21D;33620;52.340;5.984;2023-02-28T11:11:14;5.67;45.90
47861;HTU21D;33620;52.340;5.984;2023-02-28T11:13:42;5.74;46.07
47861;HTU21D;33620;52.340;5.984;2023-02-28T11:16:09;5.78;46.09
47861;HTU21D;33620;52.340;5.984;2023-02-28T11:21:00;5.82;44.99
47861;HTU21D;33620;52.340;5.984;2023-02-28T11:23:27;5.86;45.45
47861;HTU21D;33620;52.340;5.984;2023-02-28T11:25:54;5.94;46.09
47861;HTU21D;33620;52.340;5.984;2023-02-28T11:28:32;5.94;44.84
47861;HTU21D;33620;52.340;5.984;2023-02-28T11:36:14;5.99;45.83
47861;HTU21D;33620;52.340;5.984;2023-02-28T11:38:40;6.06;46.12
47861;HTU21D;33620;52.340;5.984;2023-02-28T11:41:09;6.11;45.39
47861;HTU21D;33620;52.340;5.984;2023-02-28T11:44:00;6.17;46.15
47861;HTU21D;33620;52.340;5.984;2023-02-28T11:46:38;6.21;45.13
47861;HTU21D;33620;52.340;5.984;2023-02-28T11:51:43;6.29;45.60
47861;HTU21D;33620;52.340;5.984;2023-02-28T11:57:00;6.36;45.45
47861;HTU21D;33620;52.340;5.984;2023-02-28T12:02:20;6.49;46.67
47861;HTU21D;33620;52.340;5.984;2023-02-28T12:05:01;6.51;45.77
47861;HTU21D;33620;52.340;5.984;2023-02-28T12:07:40;6.56;44.64
47861;HTU21D;33620;52.340;5.984;2023-02-28T12:10:17;6.51;44.27
47861;HTU21D;33620;52.340;5.984;2023-02-28T12:20:37;6.57;44.58
47861;HTU21D;33620;52.340;5.984;2023-02-28T12:25:52;6.51;43.35
47861;HTU21D;33620;52.340;5.984;2023-02-28T12:28:21;6.64;45.73
47861;HTU21D;33620;52.340;5.984;2023-02-28T12:33:33;6.79;44.53
47861;HTU21D;33620;52.340;5.984;2023-02-28T12:36:01;6.84;43.57
47861;HTU21D;33620;52.340;5.984;2023-02-28T12:41:00;6.84;44.19
47861;HTU21D;33620;52.340;5.984;2023-02-28T12:43:28;6.88;44.13
47861;HTU21D;33620;52.340;5.984;2023-02-28T12:45:56;6.91;43.55
47861;HTU21D;33620;52.340;5.984;2023-02-28T12:48:30;6.91;42.59
47861;HTU21D;33620;52.340;5.984;2023-02-28T12:50:56;6.91;44.25
47861;HTU21D;33620;52.340;5.984;2023-02-28T12:53:31;6.97;43.78
47861;HTU21D;33620;52.340;5.984;2023-02-28T12:58:43;6.95;43.24
47861;HTU21D;33620;52.340;5.984;2023-02-28T13:10:55;6.90;43.08
47861;HTU21D;33620;52.340;5.984;2023-02-28T13:13:22;6.90;41.97
47861;HTU21D;33620;52.340;5.984;2023-02-28T13:18:30;6.83;42.21
47861;HTU21D;33620;52.340;5.984;2023-02-28T13:20:55;6.84;41.04
47861;HTU21D;33620;52.340;5.984;2023-02-28T13:26:05;6.96;43.32
47861;HTU21D;33620;52.340;5.984;2023-02-28T13:31:14;6.90;41.20
47861;HTU21D;33620;52.340;5.984;2023-02-28T13:38:46;7.02;42.76
47861;HTU21D;33620;52.340;5.984;2023-02-28T13:46:35;7.12;40.57
47861;HTU21D;33620;52.340;5.984;2023-02-28T13:51:48;7.17;40.92
47861;HTU21D;33620;52.340;5.984;2023-02-28T13:54:18;7.11;41.68
47861;HTU21D;33620;52.340;5.984;2023-02-28T14:07:03;7.35;41.36
47861;HTU21D;33620;52.340;5.984;2023-02-28T14:11:54;7.37;42.06
47861;HTU21D;33620;52.340;5.984;2023-02-28T14:17:03;7.50;42.39
47861;HTU21D;33620;52.340;5.984;2023-02-28T14:19:30;7.55;41.55
47861;HTU21D;33620;52.340;5.984;2023-02-28T14:37:09;7.49;41.90
47861;HTU21D;33620;52.340;5.984;2023-02-28T14:39:35;7.48;42.09
47861;HTU21D;33620;52.340;5.984;2023-02-28T14:42:02;7.47;41.88
47861;HTU21D;33620;52.340;5.984;2023-02-28T14:44:29;7.49;42.39
47861;HTU21D;33620;52.340;5.984;2023-02-28T14:47:01;7.54;42.67
47861;HTU21D;33620;52.340;5.984;2023-02-28T14:49:41;7.57;42.11
47861;HTU21D;33620;52.340;5.984;2023-02-28T14:52:11;7.64;42.93
47861;HTU21D;33620;52.340;5.984;2023-02-28T14:54:38;7.65;42.26
47861;HTU21D;33620;52.340;5.984;2023-02-28T14:57:04;7.68;43.10
47861;HTU21D;33620;52.340;5.984;2023-02-28T14:59:31;7.71;42.81
47861;HTU21D;33620;52.340;5.984;2023-02-28T15:04:59;7.61;42.00
47861;HTU21D;33620;52.340;5.984;2023-02-28T15:07:24;7.53;42.33
47861;HTU21D;33620;52.340;5.984;2023-02-28T15:10:10;7.56;42.55
47861;HTU21D;33620;52.340;5.984;2023-02-28T15:12:36;7.52;42.90
47861;HTU21D;33620;52.340;5.984;2023-02-28T15:15:01;7.62;44.00
47861;HTU21D;33620;52.340;5.984;2023-02-28T15:17:27;7.71;43.85
47861;HTU21D;33620;52.340;5.984;2023-02-28T15:19:52;7.73;43.21
47861;HTU21D;33620;52.340;5.984;2023-02-28T15:22:19;7.78;43.21
47861;HTU21D;33620;52.340;5.984;2023-02-28T15:24:48;7.78;43.25
47861;HTU21D;33620;52.340;5.984;2023-02-28T15:27:15;7.84;43.09
47861;HTU21D;33620;52.340;5.984;2023-02-28T15:29:45;7.81;43.64
47861;HTU21D;33620;52.340;5.984;2023-02-28T15:34:57;7.64;43.40
47861;HTU21D;33620;52.340;5.984;2023-02-28T15:40:03;7.69;43.58
47861;HTU21D;33620;52.340;5.984;2023-02-28T15:42:29;7.70;44.23
47861;HTU21D;33620;52.340;5.984;2023-02-28T15:44:56;7.73;44.22
47861;HTU21D;33620;52.340;5.984;2023-02-28T15:47:23;7.65;43.35
47861;HTU21D;33620;52.340;5.984;2023-02-28T15:52:16;7.54;43.42
47861;HTU21D;33620;52.340;5.984;2023-02-28T15:54:42;7.47;43.86
47861;HTU21D;33620;52.340;5.984;2023-02-28T15:57:11;7.40;44.17
47861;HTU21D;33620;52.340;5.984;2023-02-28T15:59:38;7.46;44.64
47861;HTU21D;33620;52.340;5.984;2023-02-28T16:04:35;7.44;44.58
47861;HTU21D;33620;52.340;5.984;2023-02-28T16:07:02;7.41;44.48
47861;HTU21D;33620;52.340;5.984;2023-02-28T16:09:27;7.45;45.19
47861;HTU21D;33620;52.340;5.984;2023-02-28T16:11:55;7.50;44.73
47861;HTU21D;33620;52.340;5.984;2023-02-28T16:14:24;7.52;45.47
47861;HTU21D;33620;52.340;5.984;2023-02-28T16:16:54;7.52;45.15
47861;HTU21D;33620;52.340;5.984;2023-02-28T16:19:21;7.55;44.75
47861;HTU21D;33620;52.340;5.984;2023-02-28T16:21:47;7.62;45.01
47861;HTU21D;33620;52.340;5.984;2023-02-28T16:24:13;7.74;45.35
47861;HTU21D;33620;52.340;5.984;2023-02-28T16:26:39;7.84;45.16
47861;HTU21D;33620;52.340;5.984;2023-02-28T16:29:05;7.93;44.26
47861;HTU21D;33620;52.340;5.984;2023-02-28T16:31:32;8.03;44.36
47861;HTU21D;33620;52.340;5.984;2023-02-28T16:34:00;8.17;44.58
47861;HTU21D;33620;52.340;5.984;2023-02-28T16:36:25;8.12;43.80
47861;HTU21D;33620;52.340;5.984;2023-02-28T16:38:51;8.02;43.80
47861;HTU21D;33620;52.340;5.984;2023-02-28T16:41:17;7.86;44.48
47861;HTU21D;33620;52.340;5.984;2023-02-28T16:43:44;7.71;44.54
47861;HTU21D;33620;52.340;5.984;2023-02-28T16:46:10;7.56;45.15
47861;HTU21D;33620;52.340;5.984;2023-02-28T16:48:36;7.41;45.70
47861;HTU21D;33620;52.340;5.984;2023-02-28T16:51:02;7.29;46.11
47861;HTU21D;33620;52.340;5.984;2023-02-28T16:53:29;7.22;46.67
47861;HTU21D;33620;52.340;5.984;2023-02-28T16:55:54;7.13;46.91
47861;HTU21D;33620;52.340;5.984;2023-02-28T16:58:20;7.04;47.27
47861;HTU21D;33620;52.340;5.984;2023-02-28T17:00:46;6.98;47.84
47861;HTU21D;33620;52.340;5.984;2023-02-28T17:05:47;6.87;48.32
47861;HTU21D;33620;52.340;5.984;2023-02-28T17:08:12;6.81;48.47
47861;HTU21D;33620;52.340;5.984;2023-02-28T17:10:37;6.76;49.11
47861;HTU21D;33620;52.340;5.984;2023-02-28T17:13:02;6.73;49.39
47861;HTU21D;33620;52.340;5.984;2023-02-28T17:15:28;6.66;50.14
47861;HTU21D;33620;52.340;5.984;2023-02-28T17:17:53;6.60;50.11
47861;HTU21D;33620;52.340;5.984;2023-02-28T17:20:20;6.57;50.31
47861;HTU21D;33620;52.340;5.984;2023-02-28T17:22:51;6.53;50.52
47861;HTU21D;33620;52.340;5.984;2023-02-28T17:25:16;6.49;51.62
47861;HTU21D;33620;52.340;5.984;2023-02-28T17:27:42;6.43;51.72
47861;HTU21D;33620;52.340;5.984;2023-02-28T17:30:24;6.39;51.74
47861;HTU21D;33620;52.340;5.984;2023-02-28T17:32:50;6.36;52.59
47861;HTU21D;33620;52.340;5.984;2023-02-28T17:35:16;6.30;52.75
47861;HTU21D;33620;52.340;5.984;2023-02-28T17:37:41;6.28;52.62
47861;HTU21D;33620;52.340;5.984;2023-02-28T17:40:11;6.25;52.85
47861;HTU21D;33620;52.340;5.984;2023-02-28T17:42:37;6.16;53.12
47861;HTU21D;33620;52.340;5.984;2023-02-28T17:45:03;6.11;53.66
47861;HTU21D;33620;52.340;5.984;2023-02-28T17:47:28;6.06;53.91
47861;HTU21D;33620;52.340;5.984;2023-02-28T17:49:53;6.00;54.28
47861;HTU21D;33620;52.340;5.984;2023-02-28T17:52:19;5.96;54.87
47861;HTU21D;33620;52.340;5.984;2023-02-28T17:54:44;5.91;55.16
47861;HTU21D;33620;52.340;5.984;2023-02-28T17:57:14;5.87;55.04
47861;HTU21D;33620;52.340;5.984;2023-02-28T17:59:40;5.83;55.47
47861;HTU21D;33620;52.340;5.984;2023-02-28T18:02:07;5.79;55.07
47861;HTU21D;33620;52.340;5.984;2023-02-28T18:04:34;5.76;56.00
47861;HTU21D;33620;52.340;5.984;2023-02-28T18:06:59;5.72;56.40
47861;HTU21D;33620;52.340;5.984;2023-02-28T18:09:25;5.69;56.63
47861;HTU21D;33620;52.340;5.984;2023-02-28T18:11:51;5.65;56.96
47861;HTU21D;33620;52.340;5.984;2023-02-28T18:14:17;5.62;57.05